Time;durP1;ratioP1;P1;durP2;ratioP2;P2;SDS_P1;SDS_P2;PMS_P1;PMS_P2;Temp;Humidity;BMP_temperature;BMP_pressure;BME280_temperature;BME280_humidity;BME280_pressure;Samples;Min_cycle;Max_cycle;Signal;HPM_P1;HPM_P2
2024/01/03 00:01:02;;;;;;;;;;;8.20;99.90;;;;;;5105725;27;20218;-79
2024/01/03 00:03:28;;;;;;;;;;;8.20;99.90;;;;;;5123212;27;20101;-79
2024/01/03 00:05:54;;;;;;;;;;;8.20;99.90;;;;;;5090983;27;20021;-79
2024/01/03 00:08:27;;;;;;;;;;;8.10;99.90;;;;;;5123600;27;20069;-78
2024/01/03 00:10:56;;;;;;;;;;;8.10;99.90;;;;;;5122720;27;20352;-80
2024/01/03 00:13:31;;;;;;;;;;;8.20;99.90;;;;;;5118407;27;20407;-78
2024/01/03 00:16:12;;;;;;;;;;;8.20;99.90;;;;;;5124497;27;19977;-80
2024/01/03 00:18:58;;;;;;;;;;;8.20;99.90;;;;;;5108675;27;20075;-78
2024/01/03 00:21:28;;;;;;;;;;;8.20;99.90;;;;;;5124071;27;20487;-80
2024/01/03 00:23:55;;;;;;;;;;;8.20;99.90;;;;;;5125674;27;19938;-80
2024/01/03 00:26:28;;;;;;;;;;;8.30;99.90;;;;;;5123370;27;19949;-79
2024/01/03 00:28:54;;;;;;;;;;;8.30;99.90;;;;;;5139617;27;19974;-79
2024/01/03 00:31:32;;;;;;;;;;;8.30;99.90;;;;;;5107589;27;19923;-79
2024/01/03 00:33:57;;;;;;;;;;;8.40;99.90;;;;;;5125729;27;19923;-78
2024/01/03 00:36:23;;;;;;;;;;;8.40;99.90;;;;;;5125186;27;19933;-79
2024/01/03 00:38:49;;;;;;;;;;;8.40;99.90;;;;;;5113451;27;19927;-79
2024/01/03 00:41:14;;;;;;;;;;;8.40;99.90;;;;;;5125041;27;20574;-79
2024/01/03 00:43:40;;;;;;;;;;;8.50;99.90;;;;;;5123841;27;19931;-78
2024/01/03 00:46:07;;;;;;;;;;;8.50;99.90;;;;;;5123711;27;19931;-79
2024/01/03 00:48:34;;;;;;;;;;;8.50;99.90;;;;;;5123746;27;19981;-80
2024/01/03 00:51:03;;;;;;;;;;;8.50;99.90;;;;;;5109893;27;19939;-79
2024/01/03 00:53:29;;;;;;;;;;;8.40;99.90;;;;;;5123112;27;19942;-79
2024/01/03 00:56:01;;;;;;;;;;;8.50;99.90;;;;;;5124669;27;19927;-79
2024/01/03 00:58:27;;;;;;;;;;;8.50;99.90;;;;;;5122773;27;19931;-79
2024/01/03 01:00:52;;;;;;;;;;;8.40;99.90;;;;;;5084424;27;19930;-78
2024/01/03 01:03:18;;;;;;;;;;;8.50;99.90;;;;;;5108209;27;19934;-79
2024/01/03 01:05:44;;;;;;;;;;;8.50;99.90;;;;;;5123310;27;20362;-80
2024/01/03 01:08:09;;;;;;;;;;;8.50;99.90;;;;;;5123390;27;19931;-79
2024/01/03 01:10:35;;;;;;;;;;;8.50;99.90;;;;;;5106864;27;19927;-79
2024/01/03 01:13:07;;;;;;;;;;;8.50;99.90;;;;;;5126110;27;19938;-78
2024/01/03 01:15:32;;;;;;;;;;;8.60;99.90;;;;;;5122439;27;20018;-79
2024/01/03 01:17:58;;;;;;;;;;;8.60;99.90;;;;;;5107144;27;19935;-78
2024/01/03 01:20:29;;;;;;;;;;;8.60;99.90;;;;;;5104572;27;19976;-77
2024/01/03 01:22:55;;;;;;;;;;;8.60;99.90;;;;;;5123226;27;19930;-79
2024/01/03 01:25:21;;;;;;;;;;;8.60;99.90;;;;;;5124251;27;20579;-79
2024/01/03 01:27:47;;;;;;;;;;;8.70;99.90;;;;;;5124712;27;20014;-79
2024/01/03 01:30:13;;;;;;;;;;;8.70;99.90;;;;;;5120629;27;19931;-79
2024/01/03 01:32:38;;;;;;;;;;;8.70;99.90;;;;;;5122164;27;19930;-79
2024/01/03 01:35:07;;;;;;;;;;;8.70;99.90;;;;;;5142371;27;20010;-79
2024/01/03 01:37:33;;;;;;;;;;;8.70;99.90;;;;;;5121700;27;20034;-78
2024/01/03 01:39:59;;;;;;;;;;;8.70;99.90;;;;;;5102536;27;19956;-78
2024/01/03 01:42:25;;;;;;;;;;;8.70;99.90;;;;;;5102588;27;19934;-78
2024/01/03 01:44:50;;;;;;;;;;;8.70;99.90;;;;;;5117734;27;20017;-78
2024/01/03 01:47:16;;;;;;;;;;;8.60;99.90;;;;;;5104519;27;19933;-78
2024/01/03 01:49:42;;;;;;;;;;;8.60;99.90;;;;;;5139639;27;19927;-78
2024/01/03 01:52:13;;;;;;;;;;;8.60;99.90;;;;;;5105527;27;19972;-78
2024/01/03 01:54:39;;;;;;;;;;;8.70;99.90;;;;;;5123035;27;20742;-78
2024/01/03 01:57:09;;;;;;;;;;;8.70;99.90;;;;;;5104698;27;19927;-78
2024/01/03 01:59:34;;;;;;;;;;;8.70;99.90;;;;;;5119993;27;19953;-80
2024/01/03 02:02:01;;;;;;;;;;;8.70;99.90;;;;;;5122736;27;19923;-78
2024/01/03 02:04:27;;;;;;;;;;;8.70;99.90;;;;;;5123049;27;19935;-79
2024/01/03 02:06:53;;;;;;;;;;;8.70;99.90;;;;;;5101455;27;19927;-78
2024/01/03 02:09:19;;;;;;;;;;;8.70;99.90;;;;;;5123332;27;19946;-79
2024/01/03 02:11:45;;;;;;;;;;;8.70;99.90;;;;;;5121323;27;19954;-79
2024/01/03 02:14:10;;;;;;;;;;;8.70;99.90;;;;;;5120980;27;19931;-79
2024/01/03 02:16:36;;;;;;;;;;;8.70;99.90;;;;;;5120602;27;19938;-79
2024/01/03 02:19:04;;;;;;;;;;;8.70;99.90;;;;;;5089299;27;19923;-79
2024/01/03 02:21:30;;;;;;;;;;;8.80;99.90;;;;;;5121138;27;20370;-78
2024/01/03 02:23:55;;;;;;;;;;;8.80;99.90;;;;;;5121448;27;19938;-79
2024/01/03 02:26:21;;;;;;;;;;;8.80;99.90;;;;;;5121950;27;19942;-79
2024/01/03 02:28:47;;;;;;;;;;;8.80;99.90;;;;;;5122068;27;20397;-79
2024/01/03 02:31:12;;;;;;;;;;;8.80;99.90;;;;;;5106387;27;19984;-79
2024/01/03 02:33:41;;;;;;;;;;;8.80;99.90;;;;;;5139336;27;19937;-78
2024/01/03 02:36:07;;;;;;;;;;;8.80;99.90;;;;;;5122670;27;19930;-79
2024/01/03 02:38:32;;;;;;;;;;;8.80;99.90;;;;;;5104909;27;20381;-79
2024/01/03 02:40:58;;;;;;;;;;;8.80;99.90;;;;;;5123334;27;20197;-79
2024/01/03 02:43:24;;;;;;;;;;;8.70;99.90;;;;;;5122579;27;19931;-76
2024/01/03 02:45:51;;;;;;;;;;;8.70;99.90;;;;;;5108727;27;19934;-78
2024/01/03 02:48:16;;;;;;;;;;;8.70;99.90;;;;;;5087295;27;19927;-79
2024/01/03 02:50:47;;;;;;;;;;;8.70;99.90;;;;;;5107140;27;20438;-78
2024/01/03 02:53:15;;;;;;;;;;;8.70;99.90;;;;;;5122405;27;19927;-79
2024/01/03 02:55:41;;;;;;;;;;;8.70;99.90;;;;;;5104967;27;19934;-79
2024/01/03 02:58:07;;;;;;;;;;;8.70;99.90;;;;;;5103039;27;20592;-79
2024/01/03 03:00:32;;;;;;;;;;;8.70;99.90;;;;;;5121582;27;20043;-79
2024/01/03 03:02:58;;;;;;;;;;;8.70;99.90;;;;;;5119781;27;19946;-78
2024/01/03 03:05:24;;;;;;;;;;;8.70;99.90;;;;;;5103849;27;19931;-78
2024/01/03 03:07:50;;;;;;;;;;;8.70;99.90;;;;;;5103566;27;19970;-79
2024/01/03 03:10:21;;;;;;;;;;;8.70;99.90;;;;;;5121164;27;19942;-78
2024/01/03 03:12:48;;;;;;;;;;;8.70;99.90;;;;;;5103032;27;19931;-79
2024/01/03 03:15:14;;;;;;;;;;;8.70;99.90;;;;;;5105503;27;19978;-79
2024/01/03 03:17:41;;;;;;;;;;;8.70;99.90;;;;;;5105177;27;19963;-79
2024/01/03 03:20:06;;;;;;;;;;;8.70;99.90;;;;;;5120414;27;19943;-79
2024/01/03 03:22:32;;;;;;;;;;;9.40;99.90;;;;;;5121391;27;19931;-78
2024/01/03 03:24:58;;;;;;;;;;;8.70;99.90;;;;;;5102392;27;19979;-79
2024/01/03 03:27:30;;;;;;;;;;;8.70;99.90;;;;;;5120640;27;20378;-79
2024/01/03 03:29:58;;;;;;;;;;;8.70;99.90;;;;;;5120126;27;20002;-79
2024/01/03 03:32:23;;;;;;;;;;;8.70;99.90;;;;;;5120552;27;19968;-79
2024/01/03 03:34:49;;;;;;;;;;;8.70;99.90;;;;;;5125863;27;19927;-79
2024/01/03 03:37:15;;;;;;;;;;;8.80;99.90;;;;;;5125350;27;20154;-79
2024/01/03 03:39:40;;;;;;;;;;;9.60;99.90;;;;;;5104831;27;20385;-78
2024/01/03 03:42:06;;;;;;;;;;;8.80;99.90;;;;;;5095587;27;19946;-79
2024/01/03 03:44:32;;;;;;;;;;;8.80;99.90;;;;;;5103359;27;19938;-79
2024/01/03 03:47:00;;;;;;;;;;;8.80;99.90;;;;;;5123040;27;19938;-79
2024/01/03 03:49:26;;;;;;;;;;;8.80;99.90;;;;;;5121737;27;19927;-79
2024/01/03 03:51:52;;;;;;;;;;;8.80;99.90;;;;;;5104217;27;19927;-79
2024/01/03 03:54:18;;;;;;;;;;;8.80;99.90;;;;;;5086257;27;19923;-79
2024/01/03 03:56:44;;;;;;;;;;;8.80;99.90;;;;;;5103482;27;20393;-79
2024/01/03 03:59:10;;;;;;;;;;;8.80;99.90;;;;;;5104739;27;20150;-78
2024/01/03 04:01:37;;;;;;;;;;;8.80;99.90;;;;;;5086954;27;19943;-79
2024/01/03 04:04:02;;;;;;;;;;;8.80;99.90;;;;;;5122288;27;19962;-78
2024/01/03 04:06:28;;;;;;;;;;;8.80;99.90;;;;;;5119814;27;20046;-79
2024/01/03 04:08:54;;;;;;;;;;;8.70;99.90;;;;;;5139099;27;19950;-79
2024/01/03 04:11:20;;;;;;;;;;;8.60;99.90;;;;;;5120699;27;20289;-79
2024/01/03 04:13:46;;;;;;;;;;;10.00;99.90;;;;;;5104871;27;19935;-79
2024/01/03 04:16:12;;;;;;;;;;;8.60;99.90;;;;;;5104857;27;20356;-79
2024/01/03 04:18:38;;;;;;;;;;;8.60;99.90;;;;;;5105042;27;20005;-79
2024/01/03 04:21:06;;;;;;;;;;;8.60;99.90;;;;;;5108033;27;20552;-80
2024/01/03 04:23:32;;;;;;;;;;;8.60;99.90;;;;;;5126249;27;19976;-79
2024/01/03 04:25:58;;;;;;;;;;;8.70;99.90;;;;;;5124771;27;19927;-79
2024/01/03 04:28:23;;;;;;;;;;;8.60;99.90;;;;;;5125015;27;19927;-79
2024/01/03 04:30:49;;;;;;;;;;;8.60;99.90;;;;;;5123493;27;19927;-78
2024/01/03 04:33:15;;;;;;;;;;;8.70;99.90;;;;;;5124673;27;19934;-79
2024/01/03 04:35:41;;;;;;;;;;;8.60;99.90;;;;;;5108334;27;19985;-79
2024/01/03 04:38:07;;;;;;;;;;;8.60;99.90;;;;;;5121293;27;19927;-80
2024/01/03 04:40:33;;;;;;;;;;;8.60;99.90;;;;;;5109343;27;19934;-79
2024/01/03 04:42:59;;;;;;;;;;;8.60;99.90;;;;;;5107317;27;19946;-79
2024/01/03 04:45:25;;;;;;;;;;;8.60;99.90;;;;;;5120877;27;20018;-79
2024/01/03 04:47:56;;;;;;;;;;;8.70;99.90;;;;;;5141677;27;19934;-79
2024/01/03 04:50:27;;;;;;;;;;;8.70;99.90;;;;;;5120528;27;19938;-79
2024/01/03 04:52:53;;;;;;;;;;;8.70;99.90;;;;;;5109730;27;19923;-79
2024/01/03 04:55:18;;;;;;;;;;;8.70;99.90;;;;;;5122395;27;19942;-79
2024/01/03 04:57:46;;;;;;;;;;;8.60;99.90;;;;;;5106994;27;20358;-80
2024/01/03 05:00:12;;;;;;;;;;;8.50;99.90;;;;;;5109180;27;20595;-78
2024/01/03 05:02:37;;;;;;;;;;;8.40;99.90;;;;;;5125700;27;20384;-79
2024/01/03 05:05:05;;;;;;;;;;;8.40;99.90;;;;;;5125579;27;19931;-79
2024/01/03 05:07:33;;;;;;;;;;;8.40;99.90;;;;;;5098527;27;19923;-79
2024/01/03 05:09:59;;;;;;;;;;;8.40;99.90;;;;;;5122930;27;19923;-79
2024/01/03 05:12:24;;;;;;;;;;;8.30;99.90;;;;;;5105126;27;20452;-79
2024/01/03 05:14:50;;;;;;;;;;;8.40;99.90;;;;;;5121860;27;19931;-79
2024/01/03 05:17:15;;;;;;;;;;;8.40;99.90;;;;;;5104538;27;19968;-79
2024/01/03 05:19:43;;;;;;;;;;;8.40;99.90;;;;;;5126084;27;19934;-79
2024/01/03 05:22:08;;;;;;;;;;;8.50;99.90;;;;;;5122652;27;19927;-79
2024/01/03 05:24:34;;;;;;;;;;;8.50;99.90;;;;;;5120920;27;19931;-79
2024/01/03 05:27:00;;;;;;;;;;;8.60;99.90;;;;;;5120753;27;19923;-80
2024/01/03 05:29:26;;;;;;;;;;;8.60;99.90;;;;;;5124739;27;20271;-79
2024/01/03 05:31:51;;;;;;;;;;;8.60;99.90;;;;;;5105643;27;19980;-79
2024/01/03 05:34:17;;;;;;;;;;;8.60;99.90;;;;;;5107149;27;19991;-79
2024/01/03 05:36:42;;;;;;;;;;;8.60;99.90;;;;;;5120704;27;19927;-79
2024/01/03 05:39:11;;;;;;;;;;;8.70;99.90;;;;;;5122134;27;19927;-79
2024/01/03 05:41:36;;;;;;;;;;;8.70;99.90;;;;;;5118822;27;20281;-79
2024/01/03 05:44:02;;;;;;;;;;;8.70;99.90;;;;;;5103122;27;19933;-79
2024/01/03 05:46:29;;;;;;;;;;;8.60;99.90;;;;;;5120980;27;19939;-79
2024/01/03 05:48:55;;;;;;;;;;;8.70;99.90;;;;;;5120324;27;19927;-79
2024/01/03 05:51:21;;;;;;;;;;;8.70;99.90;;;;;;5106291;27;19928;-79
2024/01/03 05:53:49;;;;;;;;;;;8.70;99.90;;;;;;5124552;27;19930;-79
2024/01/03 05:56:15;;;;;;;;;;;8.70;99.90;;;;;;5122333;27;19934;-79
2024/01/03 05:58:42;;;;;;;;;;;8.70;99.90;;;;;;5120410;27;19923;-79
2024/01/03 06:01:10;;;;;;;;;;;8.80;99.90;;;;;;5122125;27;19924;-79
2024/01/03 06:03:36;;;;;;;;;;;8.80;99.90;;;;;;5140549;27;20409;-79
2024/01/03 06:06:01;;;;;;;;;;;8.80;99.90;;;;;;5121289;27;20012;-79
2024/01/03 06:08:27;;;;;;;;;;;8.80;99.90;;;;;;5123750;27;19986;-78
2024/01/03 06:10:53;;;;;;;;;;;8.80;99.90;;;;;;5122070;27;19962;-78
2024/01/03 06:13:19;;;;;;;;;;;8.80;99.90;;;;;;5122003;27;19934;-79
2024/01/03 06:15:45;;;;;;;;;;;8.80;99.90;;;;;;5126443;27;19984;-79
2024/01/03 06:18:11;;;;;;;;;;;8.80;99.90;;;;;;5124559;27;19967;-79
2024/01/03 06:20:36;;;;;;;;;;;8.80;99.90;;;;;;5107852;27;19927;-79
2024/01/03 06:23:02;;;;;;;;;;;8.80;99.90;;;;;;5122062;27;19930;-78
2024/01/03 06:25:27;;;;;;;;;;;8.80;99.90;;;;;;5136504;27;20710;-79
2024/01/03 06:27:53;;;;;;;;;;;8.80;99.90;;;;;;5120140;27;19979;-79
2024/01/03 06:30:20;;;;;;;;;;;8.80;99.90;;;;;;5123902;27;19931;-80
2024/01/03 06:32:45;;;;;;;;;;;8.80;99.90;;;;;;5120196;27;19931;-79
2024/01/03 06:35:11;;;;;;;;;;;8.80;99.90;;;;;;5106595;27;20133;-78
2024/01/03 06:37:36;;;;;;;;;;;8.80;99.90;;;;;;5122550;27;20295;-79
2024/01/03 06:40:08;;;;;;;;;;;8.80;99.90;;;;;;5123244;27;19931;-80
2024/01/03 06:42:35;;;;;;;;;;;8.80;99.90;;;;;;5106973;27;19930;-78
2024/01/03 06:45:01;;;;;;;;;;;8.80;99.90;;;;;;5139460;27;19930;-80
2024/01/03 06:47:26;;;;;;;;;;;8.80;99.90;;;;;;5122509;27;19923;-78
2024/01/03 06:49:52;;;;;;;;;;;8.80;99.90;;;;;;5105893;27;19923;-79
2024/01/03 06:52:18;;;;;;;;;;;8.80;99.90;;;;;;5119348;27;19971;-79
2024/01/03 06:54:43;;;;;;;;;;;8.80;99.90;;;;;;5121003;27;20416;-78
2024/01/03 06:57:09;;;;;;;;;;;8.80;99.90;;;;;;5119335;27;19930;-76
2024/01/03 06:59:36;;;;;;;;;;;8.90;99.90;;;;;;5118842;27;20449;-76
2024/01/03 07:02:01;;;;;;;;;;;8.80;99.90;;;;;;5124459;27;19927;-80
2024/01/03 07:04:28;;;;;;;;;;;8.80;99.90;;;;;;5121394;27;19931;-76
2024/01/03 07:06:54;;;;;;;;;;;8.80;99.90;;;;;;5135213;27;19927;-76
2024/01/03 07:09:21;;;;;;;;;;;8.80;99.90;;;;;;5116350;27;20086;-77
2024/01/03 07:11:46;;;;;;;;;;;8.70;99.90;;;;;;5103817;27;19934;-75
2024/01/03 07:14:13;;;;;;;;;;;8.70;99.90;;;;;;5122407;27;19935;-76
2024/01/03 07:16:39;;;;;;;;;;;8.70;99.90;;;;;;5106437;27;19924;-77
2024/01/03 07:19:05;;;;;;;;;;;8.60;99.90;;;;;;5123068;27;20400;-76
2024/01/03 07:21:31;;;;;;;;;;;8.70;99.90;;;;;;5141828;27;19936;-75
2024/01/03 07:23:57;;;;;;;;;;;8.60;99.90;;;;;;5124760;27;19931;-75
2024/01/03 07:26:22;;;;;;;;;;;8.70;99.90;;;;;;5108020;27;19934;-76
2024/01/03 07:28:48;;;;;;;;;;;8.60;99.90;;;;;;5140659;27;19923;-76
2024/01/03 07:31:13;;;;;;;;;;;8.70;99.90;;;;;;5124140;27;19927;-77
2024/01/03 07:33:40;;;;;;;;;;;8.70;99.90;;;;;;5121746;27;19927;-75
2024/01/03 07:36:08;;;;;;;;;;;8.70;99.90;;;;;;5106348;27;20053;-75
2024/01/03 07:38:34;;;;;;;;;;;8.70;99.90;;;;;;5124175;27;20014;-75
2024/01/03 07:41:00;;;;;;;;;;;8.70;99.90;;;;;;5127004;27;19923;-76
2024/01/03 07:43:29;;;;;;;;;;;8.70;99.90;;;;;;5128739;27;19934;-75
2024/01/03 07:45:56;;;;;;;;;;;8.70;99.90;;;;;;5143372;27;19923;-76
2024/01/03 07:48:21;;;;;;;;;;;8.70;99.90;;;;;;5111238;27;19991;-75
2024/01/03 07:50:47;;;;;;;;;;;8.70;99.90;;;;;;5108073;27;19970;-75
2024/01/03 07:53:13;;;;;;;;;;;8.60;99.90;;;;;;5128051;27;20013;-75
2024/01/03 07:55:38;;;;;;;;;;;8.60;99.90;;;;;;5114017;27;20426;-75
2024/01/03 07:58:04;;;;;;;;;;;8.60;99.90;;;;;;5132368;27;19923;-74
2024/01/03 08:00:30;;;;;;;;;;;8.60;99.90;;;;;;5150478;27;19934;-75
2024/01/03 08:02:56;;;;;;;;;;;8.50;99.90;;;;;;5129811;27;19954;-76
2024/01/03 08:05:22;;;;;;;;;;;8.50;99.90;;;;;;5123514;27;19927;-75
2024/01/03 08:07:48;;;;;;;;;;;8.50;99.90;;;;;;5113165;27;19934;-75
2024/01/03 08:10:13;;;;;;;;;;;8.50;99.90;;;;;;5129279;27;19975;-75
2024/01/03 08:12:40;;;;;;;;;;;8.50;99.90;;;;;;5127540;27;20344;-75
2024/01/03 08:15:05;;;;;;;;;;;8.50;99.90;;;;;;5112974;27;19927;-75
2024/01/03 08:17:31;;;;;;;;;;;8.50;99.90;;;;;;5128999;27;20449;-75
2024/01/03 08:19:57;;;;;;;;;;;8.60;99.90;;;;;;5130751;27;19934;-75
2024/01/03 08:22:22;;;;;;;;;;;8.60;99.90;;;;;;5129548;27;19927;-74
2024/01/03 08:24:48;;;;;;;;;;;8.60;99.90;;;;;;5111359;27;20274;-75
2024/01/03 08:27:14;;;;;;;;;;;8.60;99.90;;;;;;5129071;27;19971;-74
2024/01/03 08:29:39;;;;;;;;;;;8.70;99.90;;;;;;5093703;27;19927;-74
2024/01/03 08:32:05;;;;;;;;;;;8.70;99.90;;;;;;5111126;27;20017;-74
2024/01/03 08:34:31;;;;;;;;;;;8.70;99.90;;;;;;5130675;27;20035;-75
2024/01/03 08:36:56;;;;;;;;;;;8.70;99.90;;;;;;5130466;27;19923;-76
2024/01/03 08:39:23;;;;;;;;;;;8.70;99.90;;;;;;5109529;27;20384;-74
2024/01/03 08:41:53;;;;;;;;;;;8.80;99.90;;;;;;5127212;27;19931;-75
2024/01/03 08:44:19;;;;;;;;;;;8.70;99.90;;;;;;5125106;27;19933;-74
2024/01/03 08:46:45;;;;;;;;;;;8.80;99.90;;;;;;5126833;27;20313;-74
2024/01/03 08:49:11;;;;;;;;;;;8.80;99.90;;;;;;5130338;27;19946;-75
2024/01/03 08:51:38;;;;;;;;;;;8.80;99.90;;;;;;5130634;27;19934;-75
2024/01/03 08:54:03;;;;;;;;;;;8.80;99.90;;;;;;5111494;27;19927;-75
2024/01/03 08:56:29;;;;;;;;;;;8.80;99.90;;;;;;5129961;27;19968;-75
2024/01/03 08:58:55;;;;;;;;;;;8.80;99.90;;;;;;5129259;27;19927;-75
2024/01/03 09:01:21;;;;;;;;;;;8.80;99.90;;;;;;5129040;27;20354;-75
2024/01/03 09:03:48;;;;;;;;;;;8.80;99.90;;;;;;5148784;27;19927;-75
2024/01/03 09:06:16;;;;;;;;;;;8.70;99.90;;;;;;5111111;27;19949;-75
2024/01/03 09:08:42;;;;;;;;;;;8.70;99.90;;;;;;5127673;27;19923;-75
2024/01/03 09:11:08;;;;;;;;;;;8.70;99.90;;;;;;5127126;27;20526;-75
2024/01/03 09:13:37;;;;;;;;;;;8.80;99.90;;;;;;5128595;27;20018;-75
2024/01/03 09:16:07;;;;;;;;;;;8.70;99.90;;;;;;5118932;27;19926;-73
2024/01/03 09:18:33;;;;;;;;;;;8.70;99.90;;;;;;5146688;27;19934;-75
2024/01/03 09:21:01;;;;;;;;;;;8.70;99.90;;;;;;5112180;27;19927;-74
2024/01/03 09:23:27;;;;;;;;;;;8.80;99.90;;;;;;5124141;27;19971;-75
2024/01/03 09:25:55;;;;;;;;;;;8.80;99.90;;;;;;5124465;27;19931;-75
2024/01/03 09:28:21;;;;;;;;;;;8.80;99.90;;;;;;5125294;27;19934;-74
2024/01/03 09:30:47;;;;;;;;;;;8.80;99.90;;;;;;5126244;27;19985;-75
2024/01/03 09:33:12;;;;;;;;;;;8.90;99.90;;;;;;5124168;27;20379;-75
2024/01/03 09:35:39;;;;;;;;;;;8.90;99.90;;;;;;5127130;27;20050;-75
2024/01/03 09:38:05;;;;;;;;;;;8.80;99.90;;;;;;5122980;27;19931;-76
2024/01/03 09:40:31;;;;;;;;;;;8.80;99.90;;;;;;5106726;27;19927;-76
2024/01/03 09:42:57;;;;;;;;;;;8.70;99.90;;;;;;5121907;27;20021;-76
2024/01/03 09:45:23;;;;;;;;;;;8.70;99.90;;;;;;5119919;27;20342;-77
2024/01/03 09:47:49;;;;;;;;;;;8.70;99.90;;;;;;5122344;27;20003;-75
2024/01/03 09:50:16;;;;;;;;;;;8.70;99.90;;;;;;5128310;27;20350;-76
2024/01/03 09:52:43;;;;;;;;;;;8.80;99.90;;;;;;5125198;27;20401;-76
2024/01/03 09:55:09;;;;;;;;;;;9.10;99.90;;;;;;5109010;27;20708;-76
2024/01/03 09:57:36;;;;;;;;;;;9.00;99.90;;;;;;5125612;27;20025;-76
2024/01/03 10:00:02;;;;;;;;;;;9.20;99.90;;;;;;5091055;27;19934;-76
2024/01/03 10:02:27;;;;;;;;;;;9.20;99.90;;;;;;5140036;27;19927;-76
2024/01/03 10:04:53;;;;;;;;;;;9.20;99.90;;;;;;5122252;27;19931;-76
2024/01/03 10:07:32;;;;;;;;;;;9.10;99.90;;;;;;5122719;27;19935;-75
2024/01/03 10:09:58;;;;;;;;;;;9.10;99.90;;;;;;5123934;27;20053;-75
2024/01/03 10:12:23;;;;;;;;;;;9.10;99.90;;;;;;5101832;27;20281;-74
2024/01/03 10:14:50;;;;;;;;;;;9.10;99.90;;;;;;5117997;27;19927;-74
2024/01/03 10:17:16;;;;;;;;;;;9.10;99.90;;;;;;5122906;27;19954;-75
2024/01/03 10:19:41;;;;;;;;;;;9.10;99.90;;;;;;5127106;27;19929;-76
2024/01/03 10:22:07;;;;;;;;;;;9.10;99.90;;;;;;5123376;27;20029;-76
2024/01/03 10:24:40;;;;;;;;;;;10.30;99.90;;;;;;5142995;27;20381;-76
2024/01/03 10:27:09;;;;;;;;;;;9.10;99.90;;;;;;5121229;27;19927;-74
2024/01/03 10:29:35;;;;;;;;;;;9.20;99.90;;;;;;5122319;27;19926;-75
2024/01/03 10:32:03;;;;;;;;;;;9.20;99.90;;;;;;5127049;27;19926;-75
2024/01/03 10:34:29;;;;;;;;;;;9.20;99.90;;;;;;5124677;27;19930;-76
2024/01/03 10:36:56;;;;;;;;;;;9.20;99.90;;;;;;5126081;27;19931;-75
2024/01/03 10:39:21;;;;;;;;;;;9.20;99.90;;;;;;5142464;27;19927;-75
2024/01/03 10:41:48;;;;;;;;;;;9.20;99.90;;;;;;5108664;27;19979;-76
2024/01/03 10:44:14;;;;;;;;;;;9.20;99.90;;;;;;5123010;27;19992;-75
2024/01/03 10:46:40;;;;;;;;;;;9.20;99.90;;;;;;5122119;27;19984;-77
2024/01/03 10:49:07;;;;;;;;;;;9.30;99.90;;;;;;5138561;27;19931;-74
2024/01/03 10:51:37;;;;;;;;;;;9.30;99.90;;;;;;5099728;27;19931;-75
2024/01/03 10:54:04;;;;;;;;;;;9.30;99.90;;;;;;5105708;27;20011;-74
2024/01/03 10:56:34;;;;;;;;;;;9.30;99.90;;;;;;5123642;27;20554;-77
2024/01/03 10:59:04;;;;;;;;;;;9.30;99.90;;;;;;5140466;27;19938;-78
2024/01/03 11:01:32;;;;;;;;;;;9.30;99.90;;;;;;5123401;27;19927;-76
2024/01/03 11:04:16;;;;;;;;;;;9.20;99.90;;;;;;5106491;27;19954;-77
2024/01/03 11:06:48;;;;;;;;;;;9.20;99.90;;;;;;5105483;27;20174;-77
2024/01/03 11:09:14;;;;;;;;;;;9.20;99.90;;;;;;5123381;27;19970;-76
2024/01/03 11:11:39;;;;;;;;;;;9.20;99.90;;;;;;5090315;27;20438;-76
2024/01/03 11:14:17;;;;;;;;;;;9.20;99.90;;;;;;5122239;27;20377;-75
2024/01/03 11:16:43;;;;;;;;;;;9.20;99.90;;;;;;5108734;27;20495;-75
2024/01/03 11:19:09;;;;;;;;;;;9.20;99.90;;;;;;5120175;27;19966;-75
2024/01/03 11:21:35;;;;;;;;;;;9.30;99.90;;;;;;5142789;27;19980;-76
2024/01/03 11:24:01;;;;;;;;;;;9.30;99.90;;;;;;5139195;27;19966;-76
2024/01/03 11:26:46;;;;;;;;;;;9.30;99.90;;;;;;5120784;27;19923;-75
2024/01/03 11:29:33;;;;;;;;;;;9.30;99.90;;;;;;5118635;27;19991;-76
2024/01/03 11:32:03;;;;;;;;;;;9.30;99.90;;;;;;5120842;27;19931;-76
2024/01/03 11:34:35;;;;;;;;;;;9.20;99.90;;;;;;5084294;27;19931;-77
2024/01/03 11:37:02;;;;;;;;;;;9.20;99.90;;;;;;5106769;27;19966;-77
2024/01/03 11:39:32;;;;;;;;;;;9.30;99.90;;;;;;5105495;27;20452;-77
2024/01/03 11:41:58;;;;;;;;;;;9.20;99.90;;;;;;5125319;27;20161;-76
2024/01/03 11:44:24;;;;;;;;;;;9.30;99.90;;;;;;5123309;27;19930;-77
2024/01/03 11:46:56;;;;;;;;;;;9.30;99.90;;;;;;5126567;27;19953;-75
2024/01/03 11:49:22;;;;;;;;;;;9.30;99.90;;;;;;5125265;27;19927;-76
2024/01/03 11:51:48;;;;;;;;;;;9.30;99.90;;;;;;5091744;27;19938;-76
2024/01/03 11:54:13;;;;;;;;;;;9.30;99.90;;;;;;5126692;27;19923;-79
2024/01/03 11:56:39;;;;;;;;;;;9.40;99.90;;;;;;5123823;27;20401;-76
2024/01/03 11:59:05;;;;;;;;;;;9.30;99.90;;;;;;5126163;27;19927;-75
2024/01/03 12:01:30;;;;;;;;;;;9.30;99.90;;;;;;5122435;27;19935;-78
2024/01/03 12:04:10;;;;;;;;;;;9.30;99.90;;;;;;5137461;27;19934;-78
2024/01/03 12:06:36;;;;;;;;;;;9.30;99.90;;;;;;5118989;27;20007;-80
2024/01/03 12:09:05;;;;;;;;;;;9.30;99.90;;;;;;5107020;27;19923;-79
2024/01/03 12:11:34;;;;;;;;;;;9.30;99.90;;;;;;5121534;27;19927;-79
2024/01/03 12:14:00;;;;;;;;;;;9.30;99.90;;;;;;5105376;27;19982;-80
2024/01/03 12:16:25;;;;;;;;;;;9.40;99.90;;;;;;5120435;27;20029;-78
2024/01/03 12:18:53;;;;;;;;;;;9.40;99.90;;;;;;5122338;27;19969;-79
2024/01/03 12:21:18;;;;;;;;;;;9.40;99.90;;;;;;5108806;27;19935;-78
2024/01/03 12:23:54;;;;;;;;;;;9.40;99.90;;;;;;5111897;27;19929;-78
2024/01/03 12:26:20;;;;;;;;;;;9.40;99.90;;;;;;5126720;27;20002;-77
2024/01/03 12:28:45;;;;;;;;;;;9.50;99.90;;;;;;5121721;27;20398;-78
2024/01/03 12:31:18;;;;;;;;;;;9.40;99.90;;;;;;5108151;27;19923;-78
2024/01/03 12:33:44;;;;;;;;;;;9.40;99.90;;;;;;5107721;27;19931;-78
2024/01/03 12:36:09;;;;;;;;;;;9.40;99.90;;;;;;5125378;27;19971;-78
2024/01/03 12:38:35;;;;;;;;;;;9.30;99.90;;;;;;5106696;27;19928;-77
2024/01/03 12:41:00;;;;;;;;;;;9.30;99.90;;;;;;5113708;27;19923;-77
2024/01/03 12:43:33;;;;;;;;;;;9.30;99.90;;;;;;5128453;27;19977;-78
2024/01/03 12:45:59;;;;;;;;;;;9.30;99.90;;;;;;5108606;27;19927;-77
2024/01/03 12:48:24;;;;;;;;;;;9.20;99.90;;;;;;5130223;27;20211;-77
2024/01/03 12:50:52;;;;;;;;;;;9.20;99.90;;;;;;5130112;27;19923;-76
2024/01/03 12:53:21;;;;;;;;;;;9.20;99.90;;;;;;5129145;27;19927;-77
2024/01/03 12:55:46;;;;;;;;;;;9.20;99.90;;;;;;5145730;27;20016;-76
2024/01/03 12:58:12;;;;;;;;;;;9.20;99.90;;;;;;5128656;27;20330;-77
2024/01/03 13:00:38;;;;;;;;;;;9.10;99.90;;;;;;5127007;27;19927;-79
2024/01/03 13:03:04;;;;;;;;;;;9.10;99.90;;;;;;5124302;27;19930;-78
2024/01/03 13:05:29;;;;;;;;;;;9.10;99.90;;;;;;5132791;27;20323;-78
2024/01/03 13:07:55;;;;;;;;;;;9.00;99.90;;;;;;5128554;27;19942;-78
2024/01/03 13:10:20;;;;;;;;;;;9.00;99.90;;;;;;5109600;27;20293;-78
2024/01/03 13:12:46;;;;;;;;;;;8.90;99.90;;;;;;5128701;27;19983;-80
2024/01/03 13:15:12;;;;;;;;;;;8.80;99.90;;;;;;5142344;27;19927;-79
2024/01/03 13:17:38;;;;;;;;;;;8.80;99.90;;;;;;5105663;27;20014;-79
2024/01/03 13:20:04;;;;;;;;;;;8.80;99.90;;;;;;5123302;27;20062;-78
2024/01/03 13:22:30;;;;;;;;;;;8.70;99.90;;;;;;5112833;27;20013;-79
2024/01/03 13:24:55;;;;;;;;;;;8.70;99.90;;;;;;5128921;27;19931;-77
2024/01/03 13:27:21;;;;;;;;;;;8.70;99.90;;;;;;5119859;27;19927;-78
2024/01/03 13:29:52;;;;;;;;;;;8.60;99.90;;;;;;5110620;27;19931;-78
2024/01/03 13:32:18;;;;;;;;;;;8.60;99.90;;;;;;5128270;27;19938;-77
2024/01/03 13:34:44;;;;;;;;;;;8.60;99.90;;;;;;5110152;27;20289;-77
2024/01/03 13:37:12;;;;;;;;;;;8.60;99.90;;;;;;5110250;27;19927;-77
2024/01/03 13:39:38;;;;;;;;;;;8.60;99.90;;;;;;5128396;27;19927;-77
2024/01/03 13:42:05;;;;;;;;;;;8.60;99.90;;;;;;5111580;27;19935;-77
2024/01/03 13:44:30;;;;;;;;;;;8.60;99.90;;;;;;5127258;27;19931;-77
2024/01/03 13:46:56;;;;;;;;;;;8.60;99.90;;;;;;5097091;27;19938;-77
2024/01/03 13:49:21;;;;;;;;;;;8.70;99.90;;;;;;5124196;27;19946;-76
2024/01/03 13:51:48;;;;;;;;;;;8.70;99.90;;;;;;5125554;27;19989;-77
2024/01/03 13:54:14;;;;;;;;;;;8.70;99.90;;;;;;5125049;27;19927;-77
2024/01/03 13:56:39;;;;;;;;;;;8.70;99.90;;;;;;5111583;27;20396;-77
2024/01/03 13:59:08;;;;;;;;;;;8.80;99.90;;;;;;5126286;27;19926;-78
2024/01/03 14:01:33;;;;;;;;;;;8.80;99.90;;;;;;5126354;27;20262;-77
2024/01/03 14:03:59;;;;;;;;;;;8.70;99.90;;;;;;5127811;27;19930;-77
2024/01/03 14:06:24;;;;;;;;;;;8.60;99.90;;;;;;5127888;27;19979;-78
2024/01/03 14:08:51;;;;;;;;;;;8.70;99.90;;;;;;5110513;27;19926;-77
2024/01/03 14:11:19;;;;;;;;;;;8.20;99.90;;;;;;5111459;27;19932;-77
2024/01/03 14:13:44;;;;;;;;;;;8.80;99.90;;;;;;5127621;27;20177;-78
2024/01/03 14:16:10;;;;;;;;;;;8.80;99.90;;;;;;5126240;27;19948;-78
2024/01/03 14:18:39;;;;;;;;;;;8.80;99.90;;;;;;5128018;27;19974;-77
2024/01/03 14:21:07;;;;;;;;;;;8.80;99.90;;;;;;5124922;27;20336;-77
2024/01/03 14:23:33;;;;;;;;;;;8.80;99.90;;;;;;5125713;27;19969;-77
2024/01/03 14:25:59;;;;;;;;;;;8.70;99.90;;;;;;5123902;27;20002;-78
2024/01/03 14:28:25;;;;;;;;;;;8.80;99.90;;;;;;5124675;27;19986;-77